createdAt,value
2018-12-27T00:00:18.987Z,24.77
2018-12-27T00:02:54.865Z,24.50
2018-12-27T00:05:19.418Z,22.43
2018-12-27T00:07:48.070Z,21.53
2018-12-27T00:10:16.614Z,19.90
2018-12-27T00:12:45.479Z,19.53
2018-12-27T00:15:14.328Z,20.50
2018-12-27T00:17:42.842Z,20.03
2018-12-27T00:20:11.552Z,19.10
2018-12-27T00:22:40.431Z,20.87
2018-12-27T00:25:08.985Z,20.50
2018-12-27T00:27:37.562Z,20.77
2018-12-27T00:30:06.282Z,20.30
2018-12-27T00:32:35.129Z,19.03
2018-12-27T00:35:03.817Z,20.27
2018-12-27T00:37:32.061Z,20.87
2018-12-27T00:40:00.550Z,19.57
2018-12-27T00:42:29.263Z,25.37
2018-12-27T00:44:57.740Z,23.53
2018-12-27T00:47:26.421Z,21.17
2018-12-27T00:49:54.918Z,19.23
2018-12-27T00:52:23.805Z,20.47
2018-12-27T00:54:52.046Z,20.50
2018-12-27T00:57:20.742Z,21.37
2018-12-27T00:59:49.428Z,20.27
2018-12-27T01:02:18.111Z,21.57
2018-12-27T01:04:46.828Z,21.33
2018-12-27T01:07:15.488Z,21.73
2018-12-27T01:09:44.176Z,19.87
2018-12-27T01:12:12.890Z,21.47
2018-12-27T01:14:41.153Z,22.03
2018-12-27T01:17:09.746Z,20.67
2018-12-27T01:19:38.529Z,22.27
2018-12-27T01:22:07.200Z,21.20
2018-12-27T01:24:35.966Z,22.57
2018-12-27T01:27:04.538Z,21.73
2018-12-27T01:29:33.025Z,24.00
2018-12-27T01:32:01.730Z,23.93
2018-12-27T01:34:30.431Z,25.43
2018-12-27T01:36:59.089Z,24.93
2018-12-27T01:39:27.352Z,25.63
2018-12-27T01:41:56.081Z,24.33
2018-12-27T01:44:24.744Z,24.63
2018-12-27T01:46:53.422Z,25.93
2018-12-27T01:49:22.125Z,27.23
2018-12-27T01:51:50.702Z,26.57
2018-12-27T01:54:18.978Z,25.00
2018-12-27T01:56:47.396Z,26.73
2018-12-27T01:59:15.730Z,26.67
2018-12-27T02:01:44.309Z,24.93
2018-12-27T02:04:13.021Z,23.90
2018-12-27T02:06:41.390Z,23.80
2018-12-27T02:09:10.151Z,24.67
2018-12-27T02:11:38.881Z,26.13
2018-12-27T02:14:07.530Z,25.50
2018-12-27T02:16:36.021Z,26.07
2018-12-27T02:19:04.325Z,25.50
2018-12-27T02:21:32.679Z,26.53
2018-12-27T02:24:01.259Z,26.90
2018-12-27T02:26:29.955Z,26.23
2018-12-27T02:28:58.210Z,26.80
2018-12-27T02:31:26.897Z,26.70
2018-12-27T02:33:55.599Z,27.30
2018-12-27T02:36:23.859Z,26.83
2018-12-27T02:38:52.325Z,27.13
2018-12-27T02:41:20.850Z,26.53
2018-12-27T02:43:49.510Z,27.17
2018-12-27T02:46:17.780Z,28.30
2018-12-27T02:48:46.499Z,26.70
2018-12-27T02:51:15.153Z,28.53
2018-12-27T02:53:43.637Z,27.50
2018-12-27T02:56:13.365Z,27.53
2018-12-27T02:58:42.044Z,25.80
2018-12-27T03:01:10.328Z,27.80
2018-12-27T03:03:43.873Z,29.50
2018-12-27T03:06:09.229Z,28.37
2018-12-27T03:08:37.502Z,29.50
2018-12-27T03:11:06.089Z,28.27
2018-12-27T03:13:34.762Z,28.70
2018-12-27T03:16:03.439Z,26.23
2018-12-27T03:18:32.146Z,26.40
2018-12-27T03:21:00.806Z,26.53
2018-12-27T03:23:29.492Z,27.90
2018-12-27T03:25:58.217Z,28.10
2018-12-27T03:28:26.573Z,27.97
2018-12-27T03:30:55.160Z,29.07
2018-12-27T03:33:23.842Z,27.00
2018-12-27T03:35:52.093Z,26.73
2018-12-27T03:38:20.571Z,27.23
2018-12-27T03:40:49.282Z,26.03
2018-12-27T03:43:17.958Z,27.60
2018-12-27T03:45:46.449Z,27.20
2018-12-27T03:48:15.094Z,28.13
2018-12-27T03:50:43.500Z,28.53
2018-12-27T03:53:11.797Z,27.57
2018-12-27T03:55:40.118Z,27.17
2018-12-27T03:58:08.838Z,27.33
2018-12-27T04:00:37.521Z,28.80
2018-12-27T04:03:06.238Z,26.87
2018-12-27T04:05:34.692Z,27.90
2018-12-27T04:08:02.962Z,26.93
2018-12-27T04:10:31.677Z,27.03
2018-12-27T04:13:00.352Z,28.27
2018-12-27T04:15:29.133Z,28.33
2018-12-27T04:17:57.732Z,27.93
2018-12-27T04:20:26.387Z,29.03
2018-12-27T04:22:55.085Z,27.40
2018-12-27T04:25:24.095Z,29.67
2018-12-27T04:27:52.446Z,28.03
2018-12-27T04:30:21.139Z,29.23
2018-12-27T04:32:50.144Z,29.23
2018-12-27T04:35:18.709Z,28.90
2018-12-27T04:37:47.398Z,27.53
2018-12-27T04:40:16.107Z,29.97
2018-12-27T04:42:45.079Z,28.77
2018-12-27T04:45:13.655Z,28.57
2018-12-27T04:47:42.366Z,29.00
2018-12-27T04:50:11.075Z,29.40
2018-12-27T04:52:39.301Z,27.67
2018-12-27T04:55:08.014Z,27.57
2018-12-27T04:57:36.468Z,27.70
2018-12-27T05:00:05.776Z,26.80
2018-12-27T05:02:34.282Z,29.03
2018-12-27T05:05:02.937Z,26.67
2018-12-27T05:07:31.628Z,27.50
2018-12-27T05:10:00.343Z,26.83
2018-12-27T05:12:28.702Z,27.53
2018-12-27T05:14:57.287Z,27.80
2018-12-27T05:17:25.985Z,27.73
2018-12-27T05:19:54.450Z,28.47
2018-12-27T05:22:23.109Z,29.47
2018-12-27T05:24:51.630Z,29.07
2018-12-27T05:27:19.978Z,31.13
2018-12-27T05:29:48.581Z,27.90
2018-12-27T05:32:17.282Z,26.97
2018-12-27T05:34:45.929Z,28.83
2018-12-27T05:37:14.201Z,30.27
2018-12-27T05:39:42.725Z,28.03
2018-12-27T05:42:11.406Z,29.37
2018-12-27T05:44:40.134Z,28.77
2018-12-27T05:47:08.977Z,29.47
2018-12-27T05:49:38.850Z,31.03
2018-12-27T05:52:07.256Z,31.07
2018-12-27T05:54:35.666Z,28.70
2018-12-27T05:57:04.316Z,27.13
2018-12-27T05:59:33.005Z,27.50
2018-12-27T06:02:01.714Z,28.77
2018-12-27T06:04:33.779Z,28.40
2018-12-27T06:07:00.697Z,30.73
2018-12-27T06:09:29.608Z,30.70
2018-12-27T06:11:58.266Z,28.50
2018-12-27T06:14:27.169Z,29.00
2018-12-27T06:16:55.672Z,29.63
2018-12-27T06:19:24.313Z,29.70
2018-12-27T06:21:52.999Z,29.37
2018-12-27T06:24:21.725Z,27.27
2018-12-27T06:26:50.386Z,27.73
2018-12-27T06:29:19.070Z,28.00
2018-12-27T06:31:47.579Z,27.20
2018-12-27T06:34:16.238Z,28.43
2018-12-27T06:36:44.724Z,31.87
2018-12-27T06:39:13.451Z,30.53
2018-12-27T06:41:42.269Z,29.47
2018-12-27T06:44:10.685Z,30.00
2018-12-27T06:46:39.265Z,28.67
2018-12-27T06:49:07.941Z,29.57
2018-12-27T06:51:36.622Z,31.60
2018-12-27T06:54:05.336Z,30.03
2018-12-27T06:56:33.576Z,27.17
2018-12-27T06:59:02.377Z,26.33
2018-12-27T07:01:30.980Z,26.60
2018-12-27T07:03:59.644Z,27.77
2018-12-27T07:06:28.329Z,24.70
2018-12-27T07:08:56.644Z,27.27
2018-12-27T07:11:25.091Z,25.17
2018-12-27T07:13:53.549Z,23.57
2018-12-27T07:16:22.279Z,26.30
2018-12-27T07:18:50.508Z,28.43
2018-12-27T07:21:19.189Z,25.60
2018-12-27T07:23:48.002Z,24.07
2018-12-27T07:26:16.465Z,27.37
2018-12-27T07:28:45.049Z,26.63
2018-12-27T07:31:13.538Z,24.90
2018-12-27T07:33:42.241Z,25.20
2018-12-27T07:36:15.041Z,27.23
2018-12-27T07:39:00.607Z,23.03
2018-12-27T07:41:39.841Z,25.13
2018-12-27T07:44:38.922Z,23.20
2018-12-27T07:47:13.399Z,24.47
2018-12-27T07:49:43.214Z,19.77
2018-12-27T07:52:12.476Z,18.70
2018-12-27T07:54:43.755Z,18.23
2018-12-27T07:57:13.375Z,19.47
2018-12-27T07:59:41.999Z,17.67
2018-12-27T08:02:10.938Z,18.00
2018-12-27T08:04:39.385Z,17.60
2018-12-27T08:07:08.589Z,19.30
2018-12-27T08:09:37.385Z,19.53
2018-12-27T08:12:08.945Z,19.73
2018-12-27T08:14:44.662Z,18.67
2018-12-27T08:17:13.262Z,19.43
2018-12-27T08:19:41.907Z,18.60
2018-12-27T08:22:10.105Z,19.33
2018-12-27T08:24:47.466Z,19.67
2018-12-27T08:27:16.366Z,18.73
2018-12-27T08:29:45.181Z,19.97
2018-12-27T08:32:13.569Z,19.77
2018-12-27T08:34:44.270Z,20.43
2018-12-27T08:37:13.382Z,19.40
2018-12-27T08:39:41.659Z,18.50
2018-12-27T08:42:10.571Z,18.43
2018-12-27T08:44:39.534Z,17.93
2018-12-27T08:47:08.354Z,19.27
2018-12-27T08:49:37.402Z,20.20
2018-12-27T08:52:06.045Z,20.30
2018-12-27T08:54:34.406Z,19.17
2018-12-27T08:57:05.772Z,17.83
2018-12-27T08:59:34.439Z,18.67
2018-12-27T09:02:04.722Z,29.50
2018-12-27T09:04:33.413Z,27.80
2018-12-27T09:07:04.167Z,18.93
2018-12-27T09:09:38.785Z,18.57
2018-12-27T09:12:08.471Z,20.70
2018-12-27T09:14:37.209Z,21.27
2018-12-27T09:17:06.063Z,18.20
2018-12-27T09:19:34.974Z,21.30
2018-12-27T09:22:03.439Z,18.23
2018-12-27T09:24:32.314Z,19.83
2018-12-27T09:27:01.021Z,22.53
2018-12-27T09:29:29.499Z,19.67
2018-12-27T09:31:58.200Z,22.47
2018-12-27T09:34:27.110Z,19.13
2018-12-27T09:36:56.580Z,21.80
2018-12-27T09:39:25.409Z,19.80
2018-12-27T09:41:54.019Z,22.77
2018-12-27T09:44:22.635Z,19.70
2018-12-27T09:46:56.688Z,20.87
2018-12-27T09:49:25.360Z,17.73
2018-12-27T09:51:54.043Z,22.17
2018-12-27T09:54:22.734Z,29.03
2018-12-27T09:56:58.422Z,19.40
2018-12-27T09:59:49.429Z,18.27
2018-12-27T10:02:20.367Z,19.73
2018-12-27T10:04:48.923Z,19.20
2018-12-27T10:07:18.401Z,27.37
2018-12-27T10:09:47.339Z,22.27
2018-12-27T10:12:16.123Z,21.87
2018-12-27T10:14:44.457Z,18.20
2018-12-27T10:17:13.032Z,16.20
2018-12-27T10:19:41.395Z,18.97
2018-12-27T10:22:25.509Z,19.23
2018-12-27T10:24:54.265Z,19.17
2018-12-27T10:27:22.918Z,18.23
2018-12-27T10:29:58.847Z,19.00
2018-12-27T10:32:28.123Z,18.03
2018-12-27T10:34:56.807Z,20.20
2018-12-27T10:37:25.138Z,18.00
2018-12-27T10:39:54.142Z,18.00
2018-12-27T10:42:23.419Z,17.83
2018-12-27T10:44:52.128Z,18.40
2018-12-27T10:47:20.588Z,20.13
2018-12-27T10:49:49.320Z,17.60
2018-12-27T10:52:17.970Z,18.33
2018-12-27T10:54:46.668Z,19.33
2018-12-27T10:57:16.711Z,18.17
2018-12-27T10:59:45.265Z,19.67
2018-12-27T11:02:13.968Z,17.20
2018-12-27T11:04:42.654Z,17.67
2018-12-27T11:07:11.126Z,20.53
2018-12-27T11:09:39.586Z,20.70
2018-12-27T11:12:08.362Z,20.07
2018-12-27T11:14:37.167Z,19.23
2018-12-27T11:17:06.005Z,23.13
2018-12-27T11:19:34.578Z,20.23
2018-12-27T11:22:03.226Z,17.73
2018-12-27T11:24:31.921Z,19.57
2018-12-27T11:27:00.628Z,20.47
2018-12-27T11:29:29.512Z,17.10
2018-12-27T11:31:57.877Z,21.20
2018-12-27T11:34:26.683Z,19.63
2018-12-27T11:36:55.325Z,19.73
2018-12-27T11:39:24.296Z,19.33
2018-12-27T11:41:52.904Z,19.20
2018-12-27T11:44:21.593Z,20.80
2018-12-27T11:46:50.282Z,19.93
2018-12-27T11:49:22.316Z,21.40
2018-12-27T11:51:51.154Z,21.17
2018-12-27T11:54:19.740Z,20.40
2018-12-27T11:56:48.533Z,21.37
2018-12-27T11:59:17.609Z,21.00
2018-12-27T12:01:46.090Z,21.57
2018-12-27T12:04:14.828Z,23.47
2018-12-27T12:06:43.537Z,22.13
2018-12-27T12:09:12.223Z,22.70
2018-12-27T12:11:40.829Z,21.77
2018-12-27T12:14:09.580Z,25.57
2018-12-27T12:16:37.993Z,24.33
2018-12-27T12:19:06.713Z,22.73
2018-12-27T12:21:35.838Z,25.30
2018-12-27T12:24:05.718Z,23.60
2018-12-27T12:26:34.595Z,23.53
2018-12-27T12:29:03.066Z,29.10
2018-12-27T12:31:31.767Z,23.63
2018-12-27T12:34:00.283Z,42.30
2018-12-27T12:36:28.931Z,25.40
2018-12-27T12:38:57.209Z,29.33
2018-12-27T12:41:25.876Z,24.10
2018-12-27T12:43:54.528Z,23.53
2018-12-27T12:46:23.144Z,26.50
2018-12-27T12:48:51.746Z,26.93
2018-12-27T12:51:20.430Z,24.67
2018-12-27T12:53:49.094Z,28.63
2018-12-27T12:56:17.789Z,28.37
2018-12-27T12:58:47.106Z,27.33
2018-12-27T13:01:15.491Z,32.27
2018-12-27T13:03:44.248Z,24.73
2018-12-27T13:06:18.015Z,29.27
2018-12-27T13:08:42.953Z,29.93
2018-12-27T13:11:11.541Z,22.93
2018-12-27T13:13:40.239Z,23.67
2018-12-27T13:16:08.910Z,22.63
2018-12-27T13:18:37.181Z,26.20
2018-12-27T13:21:05.847Z,24.97
2018-12-27T13:23:34.552Z,24.07
2018-12-27T13:26:03.259Z,26.23
2018-12-27T13:28:31.891Z,28.83
2018-12-27T13:31:01.015Z,26.40
2018-12-27T13:33:29.739Z,29.07
2018-12-27T13:35:57.982Z,27.33
2018-12-27T13:38:26.432Z,27.03
2018-12-27T13:40:55.174Z,25.20
2018-12-27T13:43:23.823Z,37.83
2018-12-27T13:45:52.740Z,27.70
2018-12-27T13:48:21.999Z,28.07
2018-12-27T13:50:50.732Z,29.13
2018-12-27T13:53:20.429Z,30.97
2018-12-27T13:55:49.288Z,29.47
2018-12-27T13:58:17.767Z,27.90
2018-12-27T14:00:46.346Z,27.17
2018-12-27T14:03:16.049Z,28.53
2018-12-27T14:05:45.064Z,30.73
2018-12-27T14:08:14.145Z,28.40
2018-12-27T14:10:50.631Z,25.77
2018-12-27T14:13:28.726Z,27.80
2018-12-27T14:15:57.984Z,27.87
2018-12-27T14:18:26.817Z,25.53
2018-12-27T14:20:55.523Z,29.97
2018-12-27T14:23:24.450Z,25.90
2018-12-27T14:25:53.074Z,26.67
2018-12-27T14:28:22.220Z,25.40
2018-12-27T14:30:50.800Z,25.93
2018-12-27T14:33:20.474Z,26.03
2018-12-27T14:35:50.025Z,32.40
2018-12-27T14:38:18.934Z,39.63
2018-12-27T14:40:47.328Z,51.00
2018-12-27T14:43:15.806Z,34.37
2018-12-27T14:45:46.210Z,31.63
2018-12-27T14:48:14.606Z,34.70
2018-12-27T14:50:43.534Z,33.90
2018-12-27T14:53:13.111Z,32.20
2018-12-27T14:55:41.698Z,41.87
2018-12-27T14:58:10.184Z,30.67
2018-12-27T15:00:39.153Z,89.03
2018-12-27T15:03:08.262Z,43.67
2018-12-27T15:05:36.893Z,35.23
2018-12-27T15:08:12.798Z,31.80
2018-12-27T15:10:42.427Z,36.63
2018-12-27T15:13:11.110Z,36.80
2018-12-27T15:15:40.005Z,34.60
2018-12-27T15:18:08.760Z,35.87
2018-12-27T15:20:37.369Z,30.87
2018-12-27T15:23:06.096Z,34.63
2018-12-27T15:25:34.744Z,44.10
2018-12-27T15:28:04.039Z,36.43
2018-12-27T15:30:33.274Z,30.73
2018-12-27T15:33:01.818Z,28.67
2018-12-27T15:35:30.665Z,30.67
2018-12-27T15:37:59.865Z,43.70
2018-12-27T15:40:29.960Z,40.60
2018-12-27T15:42:58.402Z,35.80
2018-12-27T15:45:27.460Z,32.00
2018-12-27T15:47:57.170Z,31.77
2018-12-27T15:50:25.833Z,30.43
2018-12-27T15:52:54.004Z,31.27
2018-12-27T15:55:22.978Z,32.27
2018-12-27T15:57:51.755Z,35.17
2018-12-27T16:00:21.629Z,32.80
2018-12-27T16:02:52.340Z,38.20
2018-12-27T16:05:20.909Z,33.93
2018-12-27T16:07:51.437Z,116.07
2018-12-27T16:10:20.985Z,67.27
2018-12-27T16:12:49.899Z,54.83
2018-12-27T16:15:19.041Z,44.07
2018-12-27T16:17:47.578Z,40.03
2018-12-27T16:20:16.981Z,43.40
2018-12-27T16:22:45.485Z,36.83
2018-12-27T16:25:14.032Z,32.10
2018-12-27T16:27:42.731Z,35.80
2018-12-27T16:30:11.427Z,40.90
2018-12-27T16:32:40.095Z,36.03
2018-12-27T16:35:08.783Z,34.90
2018-12-27T16:37:37.478Z,33.50
2018-12-27T16:40:07.170Z,33.73
2018-12-27T16:42:35.873Z,30.63
2018-12-27T16:45:04.393Z,31.07
2018-12-27T16:47:32.721Z,34.30
2018-12-27T16:50:01.286Z,29.30
2018-12-27T16:52:34.909Z,29.67
2018-12-27T16:55:04.005Z,30.73
2018-12-27T16:57:32.697Z,38.70
2018-12-27T17:00:01.398Z,38.63
2018-12-27T17:02:30.070Z,36.13
2018-12-27T17:04:58.735Z,31.40
2018-12-27T17:07:27.454Z,33.97
2018-12-27T17:09:56.110Z,30.23
2018-12-27T17:12:24.822Z,32.03
2018-12-27T17:14:53.369Z,31.67
2018-12-27T17:17:21.666Z,28.50
2018-12-27T17:19:50.450Z,28.23
2018-12-27T17:22:19.100Z,28.63
2018-12-27T17:24:47.533Z,26.27
2018-12-27T17:27:16.418Z,28.77
2018-12-27T17:29:45.048Z,26.07
2018-12-27T17:32:14.165Z,25.60
2018-12-27T17:34:42.685Z,26.70
2018-12-27T17:37:11.182Z,26.50
2018-12-27T17:39:39.968Z,27.37
2018-12-27T17:42:08.613Z,25.63
2018-12-27T17:44:37.526Z,30.20
2018-12-27T17:47:06.515Z,35.37
2018-12-27T17:49:35.080Z,34.37
2018-12-27T17:52:03.786Z,29.87
2018-12-27T17:54:32.145Z,29.83
2018-12-27T17:57:00.721Z,30.93
2018-12-27T17:59:29.424Z,29.70
2018-12-27T18:01:58.101Z,32.27
2018-12-27T18:04:26.786Z,35.07
2018-12-27T18:06:55.080Z,33.30
2018-12-27T18:09:23.964Z,29.47
2018-12-27T18:11:52.265Z,35.30
2018-12-27T18:14:20.971Z,31.87
2018-12-27T18:16:50.496Z,30.77
2018-12-27T18:19:19.136Z,35.40
2018-12-27T18:21:51.542Z,30.90
2018-12-27T18:24:25.943Z,31.17
2018-12-27T18:26:55.348Z,33.53
2018-12-27T18:29:23.844Z,33.93
2018-12-27T18:31:54.577Z,33.47
2018-12-27T18:34:23.290Z,34.07
2018-12-27T18:36:52.012Z,34.87
2018-12-27T18:39:21.732Z,33.93
2018-12-27T18:41:50.491Z,33.30
2018-12-27T18:44:19.498Z,32.73
2018-12-27T18:46:48.274Z,34.30
2018-12-27T18:49:20.606Z,31.93
2018-12-27T18:51:47.484Z,33.60
2018-12-27T18:54:16.310Z,33.60
2018-12-27T18:56:45.462Z,32.70
2018-12-27T18:59:14.107Z,32.57
2018-12-27T19:01:42.970Z,32.17
2018-12-27T19:04:11.833Z,33.13
2018-12-27T19:06:40.312Z,31.63
2018-12-27T19:09:08.737Z,34.17
2018-12-27T19:12:13.337Z,39.77
2018-12-27T19:14:42.241Z,40.07
2018-12-27T19:17:39.131Z,37.53
2018-12-27T19:20:24.685Z,36.73
2018-12-27T19:23:14.159Z,36.93
2018-12-27T19:25:56.977Z,34.33
2018-12-27T19:28:32.558Z,37.50
2018-12-27T19:31:14.967Z,34.03
2018-12-27T19:34:03.645Z,37.90
2018-12-27T19:36:40.522Z,41.17
2018-12-27T19:39:23.392Z,36.77
2018-12-27T19:42:01.280Z,35.20
2018-12-27T19:44:46.003Z,36.37
2018-12-27T19:47:29.652Z,34.17
2018-12-27T19:50:18.269Z,35.90
2018-12-27T19:52:54.205Z,34.57
2018-12-27T19:55:23.063Z,36.07
2018-12-27T19:57:52.428Z,37.13
2018-12-27T20:00:21.044Z,35.40
2018-12-27T20:02:49.699Z,40.63
2018-12-27T20:05:20.017Z,35.13
2018-12-27T20:07:48.738Z,35.77
2018-12-27T20:10:17.092Z,36.43
2018-12-27T20:12:45.869Z,37.20
2018-12-27T20:15:14.898Z,35.03
2018-12-27T20:17:43.442Z,35.63
2018-12-27T20:20:12.851Z,37.70
2018-12-27T20:22:50.565Z,35.43
2018-12-27T20:25:19.321Z,40.83
2018-12-27T20:27:48.031Z,34.70
2018-12-27T20:30:16.749Z,36.53
2018-12-27T20:32:45.014Z,34.93
2018-12-27T20:35:13.667Z,39.07
2018-12-27T20:37:42.405Z,34.93
2018-12-27T20:40:10.763Z,34.03
2018-12-27T20:42:39.527Z,32.80
2018-12-27T20:45:09.161Z,34.20
2018-12-27T20:47:37.520Z,35.57
2018-12-27T20:50:06.158Z,34.33
2018-12-27T20:52:35.109Z,36.23
2018-12-27T20:55:03.449Z,38.67
2018-12-27T20:57:31.729Z,36.73
2018-12-27T21:00:00.323Z,37.00
2018-12-27T21:02:28.995Z,34.47
2018-12-27T21:04:57.680Z,36.23
2018-12-27T21:07:29.875Z,35.40
2018-12-27T21:09:58.108Z,40.23
2018-12-27T21:12:26.810Z,37.20
2018-12-27T21:14:55.514Z,41.77
2018-12-27T21:17:24.070Z,45.97
2018-12-27T21:19:52.369Z,41.10
2018-12-27T21:22:20.959Z,41.77
2018-12-27T21:24:49.821Z,42.27
2018-12-27T21:27:18.333Z,40.80
2018-12-27T21:29:46.966Z,39.13
2018-12-27T21:32:15.902Z,39.80
2018-12-27T21:34:44.265Z,38.73
2018-12-27T21:37:12.870Z,40.73
2018-12-27T21:39:42.752Z,44.73
2018-12-27T21:42:11.450Z,45.43
2018-12-27T21:44:39.733Z,42.67
2018-12-27T21:47:08.411Z,41.83
2018-12-27T21:49:37.493Z,43.40
2018-12-27T21:52:06.002Z,40.90
2018-12-27T21:54:34.667Z,41.10
2018-12-27T21:57:04.370Z,39.47
2018-12-27T21:59:33.078Z,39.53
2018-12-27T22:02:01.755Z,41.20
2018-12-27T22:04:30.440Z,42.57
2018-12-27T22:06:58.837Z,44.53
2018-12-27T22:09:27.185Z,40.53
2018-12-27T22:11:55.882Z,41.90
2018-12-27T22:14:24.576Z,40.97
2018-12-27T22:16:53.255Z,39.90
2018-12-27T22:19:21.939Z,37.97
2018-12-27T22:21:50.643Z,43.83
2018-12-27T22:24:19.320Z,39.77
2018-12-27T22:26:47.589Z,43.13
2018-12-27T22:29:16.354Z,42.80
2018-12-27T22:31:44.858Z,39.40
2018-12-27T22:34:13.634Z,39.83
2018-12-27T22:36:42.351Z,40.73
2018-12-27T22:39:10.814Z,41.20
2018-12-27T22:41:40.658Z,46.67
2018-12-27T22:44:09.636Z,42.70
2018-12-27T22:46:39.023Z,42.83
2018-12-27T22:49:07.597Z,44.53
2018-12-27T22:51:36.378Z,44.40
2018-12-27T22:54:05.195Z,46.30
2018-12-27T22:56:33.859Z,42.27
2018-12-27T22:59:02.583Z,41.00
2018-12-27T23:01:31.237Z,46.33
2018-12-27T23:03:59.911Z,41.93
2018-12-27T23:06:28.633Z,40.63
2018-12-27T23:08:57.498Z,40.07
2018-12-27T23:11:31.934Z,38.53
2018-12-27T23:14:00.609Z,40.73
2018-12-27T23:16:29.284Z,43.33
2018-12-27T23:18:57.582Z,41.80
2018-12-27T23:21:26.777Z,40.27
2018-12-27T23:23:55.748Z,36.50
2018-12-27T23:26:24.262Z,34.93
2018-12-27T23:28:52.931Z,37.17
2018-12-27T23:31:21.602Z,36.87
2018-12-27T23:33:50.114Z,36.40
2018-12-27T23:36:19.046Z,38.10
2018-12-27T23:38:50.355Z,37.90
2018-12-27T23:41:18.012Z,39.80
2018-12-27T23:43:46.467Z,38.73
2018-12-27T23:46:15.457Z,36.90
2018-12-27T23:48:43.571Z,41.47
2018-12-27T23:51:12.317Z,40.20
2018-12-27T23:53:40.805Z,38.57
2018-12-27T23:56:09.100Z,37.40
2018-12-27T23:58:37.751Z,38.70
